Time;durP1;ratioP1;P1;durP2;ratioP2;P2;SDS_P1;SDS_P2;PMS_P1;PMS_P2;Temp;Humidity;BMP_temperature;BMP_pressure;BME280_temperature;BME280_humidity;BME280_pressure;Samples;Min_cycle;Max_cycle;Signal;HPM_P1;HPM_P2
2022/05/06 00:00:53;;;;;;;49.10;30.63;;;;;;;9.92;100.00;102335.59;5242671;28;20036;-64
2022/05/06 00:03:24;;;;;;;48.55;30.00;;;;;;;9.87;100.00;102337.63;5244414;28;20672;-64
2022/05/06 00:05:55;;;;;;;51.20;31.63;;;;;;;9.84;100.00;102335.97;5242453;28;20068;-64
2022/05/06 00:08:28;;;;;;;53.70;30.85;;;;;;;9.80;100.00;102335.28;5246146;28;20032;-64
2022/05/06 00:10:59;;;;;;;52.17;31.27;;;;;;;9.78;100.00;102333.63;5244231;28;20036;-65
2022/05/06 00:13:31;;;;;;;51.40;30.15;;;;;;;9.76;100.00;102332.81;5242159;28;20694;-64
2022/05/06 00:16:03;;;;;;;52.05;31.98;;;;;;;9.70;100.00;102333.13;5242125;28;20712;-64
2022/05/06 00:18:35;;;;;;;46.58;29.38;;;;;;;9.66;100.00;102344.88;5243301;28;20060;-65
2022/05/06 00:21:06;;;;;;;49.92;31.27;;;;;;;9.65;100.00;102345.81;5244110;28;20432;-64
2022/05/06 00:23:37;;;;;;;50.72;29.45;;;;;;;9.62;100.00;102342.34;5250042;28;20440;-64
2022/05/06 00:26:09;;;;;;;52.28;32.13;;;;;;;9.62;100.00;102349.47;5248180;28;20029;-64
2022/05/06 00:28:41;;;;;;;51.45;32.05;;;;;;;9.60;100.00;102344.22;5250432;28;20029;-64
2022/05/06 00:31:12;;;;;;;47.28;30.55;;;;;;;9.54;100.00;102347.19;5246348;28;20372;-64
2022/05/06 00:33:43;;;;;;;54.83;32.47;;;;;;;9.52;100.00;102349.06;5251050;28;20044;-64
2022/05/06 00:36:15;;;;;;;50.00;30.42;;;;;;;9.48;100.00;102354.63;5247145;28;20510;-64
2022/05/06 00:38:46;;;;;;;52.33;31.13;;;;;;;9.45;100.00;102346.75;5253313;28;20029;-64
2022/05/06 00:41:18;;;;;;;49.75;31.60;;;;;;;9.42;100.00;102342.47;5250736;28;20471;-64
2022/05/06 00:43:49;;;;;;;51.40;32.58;;;;;;;9.37;100.00;102345.31;5243548;28;20060;-65
2022/05/06 00:46:21;;;;;;;57.97;32.10;;;;;;;9.34;100.00;102353.47;5246741;28;20032;-64
2022/05/06 00:48:55;;;;;;;53.95;33.85;;;;;;;9.30;100.00;102345.69;5243887;28;20556;-65
2022/05/06 00:51:26;;;;;;;56.15;34.00;;;;;;;9.33;100.00;102341.09;5250929;28;20037;-64
2022/05/06 00:53:57;;;;;;;56.28;33.85;;;;;;;9.25;100.00;102347.72;5251906;28;20483;-64
2022/05/06 00:56:28;;;;;;;56.65;32.40;;;;;;;9.28;100.00;102342.22;5240527;28;20033;-64
2022/05/06 00:59:00;;;;;;;56.60;34.35;;;;;;;9.20;100.00;102348.81;5249651;28;20037;-64
2022/05/06 01:01:31;;;;;;;57.95;34.78;;;;;;;9.15;100.00;102353.47;5248796;28;20024;-64
2022/05/06 01:04:06;;;;;;;60.45;34.70;;;;;;;9.15;100.00;102345.47;5245410;28;20155;-64
2022/05/06 01:06:38;;;;;;;60.70;34.92;;;;;;;9.11;100.00;102351.00;5242882;28;20029;-64
2022/05/06 01:09:17;;;;;;;54.28;33.90;;;;;;;9.08;100.00;102346.69;5246528;28;20321;-64
2022/05/06 01:11:48;;;;;;;56.17;33.70;;;;;;;9.16;100.00;102347.19;5248259;28;20103;-64
2022/05/06 01:14:33;;;;;;;54.40;32.90;;;;;;;9.07;100.00;102346.75;5247688;28;20110;-64
2022/05/06 01:17:04;;;;;;;53.45;33.08;;;;;;;9.02;100.00;102346.97;5245731;28;20028;-64
2022/05/06 01:19:35;;;;;;;56.75;33.83;;;;;;;9.02;100.00;102349.66;5241764;28;20024;-64
2022/05/06 01:22:07;;;;;;;52.85;31.77;;;;;;;8.97;100.00;102341.00;5243840;28;20029;-64
2022/05/06 01:24:38;;;;;;;59.97;34.15;;;;;;;8.97;100.00;102343.66;5246128;28;20115;-64
2022/05/06 01:27:17;;;;;;;55.38;33.15;;;;;;;8.96;100.00;102350.78;5250766;28;20031;-64
2022/05/06 01:29:51;;;;;;;57.92;33.38;;;;;;;9.08;100.00;102346.69;5246483;28;20082;-64
2022/05/06 01:32:23;;;;;;;56.65;32.78;;;;;;;9.03;100.00;102343.38;5244847;28;20035;-64
2022/05/06 01:34:58;;;;;;;55.55;32.78;;;;;;;9.05;100.00;102348.63;5251205;28;20037;-64
2022/05/06 01:37:34;;;;;;;57.08;33.78;;;;;;;9.02;100.00;102347.84;5254510;28;20033;-64
2022/05/06 01:40:07;;;;;;;61.75;33.67;;;;;;;9.07;100.00;102354.75;5248711;28;20021;-64
2022/05/06 01:42:40;;;;;;;62.38;34.47;;;;;;;9.09;100.00;102355.53;5251620;28;20571;-64
2022/05/06 01:45:15;;;;;;;59.80;34.58;;;;;;;9.07;100.00;102352.09;5245481;28;20032;-64
2022/05/06 01:47:47;;;;;;;62.33;35.53;;;;;;;9.03;100.00;102351.34;5242454;28;20021;-64
2022/05/06 01:50:21;;;;;;;70.90;35.58;;;;;;;8.99;100.00;102355.09;5251495;28;20047;-64
2022/05/06 01:52:54;;;;;;;66.68;35.47;;;;;;;9.05;100.00;102354.84;5249132;28;20471;-64
2022/05/06 01:55:25;;;;;;;77.40;36.47;;;;;;;8.97;100.00;102357.81;5251036;28;20116;-64
2022/05/06 01:57:57;;;;;;;139.65;36.70;;;;;;;8.89;100.00;102357.31;5245649;28;20121;-64
2022/05/06 02:00:28;;;;;;;104.25;35.80;;;;;;;8.85;100.00;102353.06;5249318;28;20403;-64
2022/05/06 02:02:59;;;;;;;82.85;35.20;;;;;;;8.97;100.00;102356.97;5248025;28;20116;-64
2022/05/06 02:05:31;;;;;;;126.15;35.28;;;;;;;8.83;100.00;102355.78;5246569;28;20028;-64
2022/05/06 02:08:02;;;;;;;88.25;34.45;;;;;;;8.84;100.00;102354.00;5248997;28;20124;-64
2022/05/06 02:10:33;;;;;;;87.72;34.38;;;;;;;8.86;100.00;102348.59;5247782;28;20032;-64
2022/05/06 02:13:05;;;;;;;86.10;35.92;;;;;;;8.81;100.00;102352.34;5243991;28;20028;-64
2022/05/06 02:15:38;;;;;;;101.07;35.67;;;;;;;8.81;100.00;102352.34;5241385;28;20040;-64
2022/05/06 02:18:09;;;;;;;118.43;36.17;;;;;;;8.77;100.00;102348.09;5246723;28;20457;-64
2022/05/06 02:20:41;;;;;;;102.38;35.35;;;;;;;8.74;100.00;102350.88;5242798;28;20427;-64
2022/05/06 02:23:12;;;;;;;118.28;37.22;;;;;;;8.70;100.00;102349.28;5244889;28;20033;-64
2022/05/06 02:25:43;;;;;;;120.10;37.63;;;;;;;8.67;100.00;102354.75;5246131;28;20040;-64
2022/05/06 02:28:15;;;;;;;115.38;37.33;;;;;;;8.68;100.00;102347.63;5247002;28;20468;-64
2022/05/06 02:33:36;;;;;;;84.35;36.35;;;;;;;8.72;100.00;102363.38;5247911;28;20049;-64
2022/05/06 02:36:07;;;;;;;78.57;37.35;;;;;;;8.75;100.00;102351.75;5246491;28;20025;-64
2022/05/06 02:38:39;;;;;;;76.13;35.92;;;;;;;8.73;100.00;102357.16;5252097;28;20064;-64
2022/05/06 02:41:13;;;;;;;143.70;37.50;;;;;;;8.61;100.00;102357.66;5250702;28;20213;-64
2022/05/06 02:43:44;;;;;;;109.32;35.85;;;;;;;8.58;100.00;102355.16;5245965;28;20055;-64
2022/05/06 02:46:16;;;;;;;171.93;36.00;;;;;;;8.54;100.00;102365.06;5247742;28;20150;-64
2022/05/06 02:48:47;;;;;;;82.10;36.15;;;;;;;8.56;100.00;102367.66;5241500;28;20025;-64
2022/05/06 02:51:18;;;;;;;77.60;33.58;;;;;;;8.59;100.00;102364.84;5242591;28;20033;-64
2022/05/06 02:53:49;;;;;;;56.63;31.45;;;;;;;8.68;100.00;102366.25;5248452;28;20059;-64
2022/05/06 02:56:21;;;;;;;96.85;29.13;;;;;;;8.53;100.00;102365.13;5254545;28;20025;-64
2022/05/06 02:58:52;;;;;;;106.53;29.73;;;;;;;8.51;100.00;102367.00;5241467;28;20124;-64
2022/05/06 03:01:24;;;;;;;50.55;27.45;;;;;;;8.54;100.00;102362.41;5242178;28;20470;-64
2022/05/06 03:03:55;;;;;;;99.15;28.98;;;;;;;8.48;100.00;102361.81;5245708;28;20490;-64
2022/05/06 03:06:27;;;;;;;104.43;27.90;;;;;;;8.49;100.00;102358.22;5249838;28;20029;-64
2022/05/06 03:08:58;;;;;;;62.05;28.08;;;;;;;8.49;100.00;102361.72;5250016;28;20052;-64
2022/05/06 03:11:29;;;;;;;54.13;27.25;;;;;;;8.58;100.00;102366.66;5249867;28;20040;-64
2022/05/06 03:14:00;;;;;;;80.55;28.63;;;;;;;8.47;100.00;102373.38;5250963;28;20498;-64
2022/05/06 03:16:32;;;;;;;78.53;26.13;;;;;;;8.41;100.00;102362.06;5253030;28;20070;-64
2022/05/06 03:19:03;;;;;;;68.20;25.50;;;;;;;8.46;100.00;102361.00;5246333;28;20033;-64
2022/05/06 03:21:35;;;;;;;94.80;26.25;;;;;;;8.50;100.00;102359.97;5245727;28;20518;-64
2022/05/06 03:24:06;;;;;;;150.77;27.00;;;;;;;8.35;100.00;102359.63;5243952;28;20045;-64
2022/05/06 03:26:37;;;;;;;91.78;26.83;;;;;;;8.31;100.00;102358.06;5246205;28;21360;-64
2022/05/06 03:29:09;;;;;;;145.65;26.88;;;;;;;8.21;100.00;102356.72;5253305;28;20681;-64
2022/05/06 03:31:41;;;;;;;78.78;24.70;;;;;;;8.18;100.00;102360.34;5252424;28;20033;-64
2022/05/06 03:34:15;;;;;;;150.63;27.80;;;;;;;8.16;100.00;102351.56;5246210;28;20513;-64
2022/05/06 03:36:46;;;;;;;166.68;27.42;;;;;;;8.13;100.00;102358.81;5248215;28;20028;-64
2022/05/06 03:39:18;;;;;;;90.22;27.55;;;;;;;8.13;100.00;102362.38;5242773;28;20025;-64
2022/05/06 03:41:49;;;;;;;71.47;29.38;;;;;;;8.20;100.00;102365.63;5250528;28;20029;-64
2022/05/06 03:44:20;;;;;;;62.67;26.65;;;;;;;8.29;100.00;102357.25;5244748;28;20116;-64
2022/05/06 03:46:51;;;;;;;63.20;27.67;;;;;;;8.32;100.00;102359.78;5251676;28;20051;-64
2022/05/06 03:49:23;;;;;;;112.05;28.42;;;;;;;8.26;100.00;102365.34;5245467;28;20033;-64
2022/05/06 03:51:54;;;;;;;55.60;25.83;;;;;;;8.39;100.00;102355.91;5249354;28;20082;-64
2022/05/06 03:54:26;;;;;;;46.92;24.65;;;;;;;8.37;100.00;102357.78;5240121;28;20041;-64
2022/05/06 03:56:58;;;;;;;125.70;25.23;;;;;;;8.23;100.00;102366.34;5243051;28;20212;-64
2022/05/06 03:59:30;;;;;;;52.65;23.92;;;;;;;8.26;100.00;102362.69;5237969;28;20040;-64
2022/05/06 04:02:01;;;;;;;73.38;23.27;;;;;;;8.22;100.00;102366.41;5240820;28;20048;-64
2022/05/06 04:04:32;;;;;;;61.20;23.65;;;;;;;8.25;100.00;102375.13;5243659;28;20036;-64
2022/05/06 04:07:04;;;;;;;100.03;22.98;;;;;;;8.24;100.00;102367.22;5248720;28;20584;-64
2022/05/06 04:09:35;;;;;;;62.90;23.77;;;;;;;8.28;100.00;102366.16;5248189;28;20025;-64
2022/05/06 04:12:08;;;;;;;80.85;23.52;;;;;;;8.23;100.00;102369.00;5246978;28;20453;-64
2022/05/06 04:14:39;;;;;;;79.85;25.02;;;;;;;8.16;100.00;102370.19;5247891;28;20044;-64
2022/05/06 04:17:11;;;;;;;127.18;24.27;;;;;;;8.05;100.00;102368.00;5246927;28;20114;-64
2022/05/06 04:23:28;;;;;;;94.05;24.02;;;;;;;8.07;100.00;102369.72;5246455;28;21509;-64
2022/05/06 04:25:24;;;;;;;77.05;24.35;;;;;;;8.16;100.00;102369.34;5244314;28;20048;-64
2022/05/06 04:27:55;;;;;;;126.50;24.48;;;;;;;8.04;100.00;102374.22;5262437;28;20371;-64
2022/05/06 04:30:27;;;;;;;68.32;23.52;;;;;;;8.09;100.00;102374.03;5246235;28;20455;-64
2022/05/06 04:32:59;;;;;;;124.78;23.70;;;;;;;8.09;100.00;102373.16;5245934;28;20021;-64
2022/05/06 04:35:30;;;;;;;136.63;24.17;;;;;;;8.10;100.00;102380.22;5247091;28;20024;-64
2022/05/06 04:38:01;;;;;;;157.68;24.45;;;;;;;8.08;100.00;102379.44;5246802;28;20040;-64
2022/05/06 04:40:33;;;;;;;73.15;23.70;;;;;;;8.18;100.00;102378.97;5242127;28;20064;-64
2022/05/06 04:43:04;;;;;;;51.90;24.35;;;;;;;8.32;100.00;102385.50;5249804;28;20036;-64
2022/05/06 04:45:40;;;;;;;74.18;24.35;;;;;;;8.31;100.00;102379.31;5242487;28;20063;-64
2022/05/06 04:48:12;;;;;;;46.95;24.33;;;;;;;8.39;100.00;102386.97;5246529;28;20157;-64
2022/05/06 04:50:46;;;;;;;55.40;24.88;;;;;;;8.48;100.00;102391.09;5247473;28;20452;-64
2022/05/06 04:53:18;;;;;;;68.75;24.42;;;;;;;8.41;100.00;102390.44;5247881;28;20025;-64
2022/05/06 04:55:50;;;;;;;89.47;23.30;;;;;;;8.36;100.00;102395.97;5248220;28;20036;-64
2022/05/06 04:58:21;;;;;;;85.95;24.40;;;;;;;8.33;100.00;102393.41;5249363;28;20041;-64
2022/05/06 05:00:52;;;;;;;104.78;24.88;;;;;;;8.29;100.00;102397.13;5242848;28;20040;-64
2022/05/06 05:03:23;;;;;;;46.65;23.52;;;;;;;8.37;100.00;102395.00;5243410;28;20055;-64
2022/05/06 05:05:54;;;;;;;48.72;23.80;;;;;;;8.44;100.00;102404.50;5248971;28;20448;-64
2022/05/06 05:08:26;;;;;;;60.00;24.05;;;;;;;8.48;100.00;102404.38;5247454;28;20482;-64
2022/05/06 05:11:02;;;;;;;83.57;23.27;;;;;;;8.44;100.00;102403.66;5249631;28;20081;-64
2022/05/06 05:13:34;;;;;;;62.50;23.80;;;;;;;8.49;100.00;102404.28;5254086;28;20399;-64
2022/05/06 05:16:06;;;;;;;46.50;24.27;;;;;;;8.57;100.00;102411.94;5254697;28;20459;-64
2022/05/06 05:18:37;;;;;;;87.38;24.38;;;;;;;8.48;100.00;102420.34;5250430;28;20032;-64
2022/05/06 05:21:08;;;;;;;74.85;22.98;;;;;;;8.52;100.00;102414.81;5244173;28;20041;-64
2022/05/06 05:23:40;;;;;;;102.65;23.92;;;;;;;8.52;100.00;102424.59;5253992;28;20094;-64
2022/05/06 05:26:12;;;;;;;92.47;23.75;;;;;;;8.56;100.00;102419.06;5251986;28;20348;-64
2022/05/06 05:28:43;;;;;;;44.35;23.25;;;;;;;8.61;100.00;102419.75;5248575;28;20042;-64
2022/05/06 05:31:14;;;;;;;48.03;26.00;;;;;;;8.78;100.00;102426.13;5243541;28;20111;-64
2022/05/06 05:33:46;;;;;;;99.05;25.55;;;;;;;8.66;100.00;102410.69;5255107;28;20032;-64
2022/05/06 05:36:17;;;;;;;88.93;24.40;;;;;;;8.75;100.00;102421.81;5246035;28;20037;-64
2022/05/06 05:38:48;;;;;;;65.00;24.67;;;;;;;8.80;100.00;102414.50;5245178;28;20028;-64
2022/05/06 05:41:19;;;;;;;68.85;25.15;;;;;;;8.86;100.00;102418.69;5245799;28;20163;-64
2022/05/06 05:49:32;;;;;;;73.93;25.60;;;;;;;8.94;100.00;102426.34;5244563;28;20048;-64
2022/05/06 05:52:03;;;;;;;56.30;26.95;;;;;;;9.02;100.00;102427.69;5247520;28;20029;-64
2022/05/06 05:54:35;;;;;;;62.97;26.05;;;;;;;9.15;100.00;102422.72;5256587;28;20040;-64
2022/05/06 05:57:06;;;;;;;56.38;27.70;;;;;;;9.24;100.00;102429.41;5250902;28;20462;-64
2022/05/06 05:59:38;;;;;;;58.88;26.88;;;;;;;9.27;100.00;102426.59;5251278;28;20102;-64
2022/05/06 06:02:11;;;;;;;61.55;27.33;;;;;;;9.30;100.00;102430.91;5249094;28;20059;-64
2022/05/06 06:04:43;;;;;;;71.70;26.45;;;;;;;9.30;100.00;102422.94;5247843;28;20082;-64
2022/05/06 06:07:14;;;;;;;79.05;26.00;;;;;;;9.33;100.00;102426.31;5243180;28;20129;-64
2022/05/06 06:09:45;;;;;;;57.42;27.35;;;;;;;9.45;100.00;102421.38;5242010;28;20471;-64
2022/05/06 06:12:17;;;;;;;56.08;27.00;;;;;;;9.67;100.00;102423.91;5247513;28;20067;-64
2022/05/06 06:14:48;;;;;;;53.28;28.13;;;;;;;9.78;100.00;102414.44;5248977;28;20112;-63
2022/05/06 06:17:19;;;;;;;53.40;27.75;;;;;;;9.78;100.00;102424.25;5239767;28;20037;-64
2022/05/06 06:19:51;;;;;;;98.85;28.23;;;;;;;9.74;100.00;102425.31;5240845;28;20095;-63
2022/05/06 06:22:22;;;;;;;61.20;28.30;;;;;;;9.80;100.00;102414.38;5248432;28;20033;-63
2022/05/06 06:24:53;;;;;;;59.75;29.17;;;;;;;9.95;100.00;102412.75;5251597;28;20033;-64
2022/05/06 06:27:28;;;;;;;57.15;29.50;;;;;;;10.15;100.00;102411.78;5248490;28;20079;-64
2022/05/06 06:29:59;;;;;;;69.25;29.45;;;;;;;10.03;100.00;102413.28;5245394;28;20029;-64
2022/05/06 06:32:30;;;;;;;73.45;29.92;;;;;;;10.07;100.00;102417.50;5240288;28;20037;-64
2022/05/06 06:35:02;;;;;;;62.60;30.23;;;;;;;10.25;100.00;102420.19;5245992;28;20040;-64
2022/05/06 06:37:34;;;;;;;62.88;30.23;;;;;;;10.19;100.00;102419.56;5245691;28;20142;-64
2022/05/06 06:40:06;;;;;;;53.47;30.08;;;;;;;10.45;100.00;102419.22;5251667;28;20032;-64
2022/05/06 06:42:37;;;;;;;48.90;27.70;;;;;;;10.61;100.00;102420.19;5252970;28;20112;-64
2022/05/06 06:45:09;;;;;;;60.10;29.40;;;;;;;10.48;100.00;102416.41;5255309;28;20140;-64
2022/05/06 06:47:41;;;;;;;48.92;28.40;;;;;;;10.54;100.00;102416.94;5253397;28;20037;-64
2022/05/06 06:50:12;;;;;;;49.13;28.20;;;;;;;10.79;100.00;102421.00;5254697;28;20130;-64
2022/05/06 06:52:44;;;;;;;48.65;28.00;;;;;;;10.92;100.00;102423.91;5255753;28;20043;-64
2022/05/06 06:55:15;;;;;;;46.78;27.02;;;;;;;11.07;100.00;102430.25;5254804;28;20403;-64
2022/05/06 06:57:46;;;;;;;45.97;27.25;;;;;;;11.17;100.00;102436.81;5255449;28;20376;-64
2022/05/06 07:00:18;;;;;;;49.75;27.75;;;;;;;11.26;100.00;102441.69;5252761;28;20407;-64
2022/05/06 07:02:49;;;;;;;49.22;26.85;;;;;;;11.25;100.00;102442.63;5249700;28;20115;-64
2022/05/06 07:05:21;;;;;;;45.97;27.83;;;;;;;11.31;100.00;102446.78;5247677;28;20079;-64
2022/05/06 07:13:33;;;;;;;40.10;24.40;;;;;;;11.26;100.00;102454.19;5249222;28;20041;-64
2022/05/06 07:16:04;;;;;;;39.80;24.90;;;;;;;11.45;100.00;102454.03;5244848;28;20057;-64
2022/05/06 07:18:37;;;;;;;43.40;25.98;;;;;;;11.56;100.00;102452.53;5251775;28;20033;-64
2022/05/06 07:21:08;;;;;;;41.13;24.58;;;;;;;11.61;100.00;102448.72;5250799;28;20456;-64
2022/05/06 07:23:39;;;;;;;39.30;23.58;;;;;;;11.34;100.00;102452.81;5249824;28;20044;-64
2022/05/06 07:26:12;;;;;;;39.08;22.48;;;;;;;11.35;100.00;102459.00;5250545;28;20028;-64
2022/05/06 07:28:43;;;;;;;40.28;23.17;;;;;;;11.23;100.00;102467.69;5253050;28;20021;-64
2022/05/06 07:31:14;;;;;;;35.97;22.52;;;;;;;11.43;100.00;102475.53;5255268;28;20029;-64
2022/05/06 07:33:46;;;;;;;34.97;22.48;;;;;;;11.40;100.00;102478.34;5247527;28;20051;-64
2022/05/06 07:36:17;;;;;;;40.97;24.85;;;;;;;11.18;100.00;102474.16;5255817;28;20021;-64
2022/05/06 07:38:50;;;;;;;39.58;24.45;;;;;;;11.26;100.00;102480.91;5255621;28;20501;-64
2022/05/06 07:41:21;;;;;;;47.47;26.48;;;;;;;11.18;100.00;102489.34;5246453;28;20351;-64
2022/05/06 07:43:52;;;;;;;46.15;26.02;;;;;;;11.18;100.00;102484.84;5253249;28;20045;-64
2022/05/06 07:46:25;;;;;;;41.65;25.48;;;;;;;11.19;100.00;102496.38;5255810;28;20028;-64
2022/05/06 07:48:56;;;;;;;47.53;26.52;;;;;;;10.96;100.00;102489.56;5255199;28;20176;-64
2022/05/06 07:51:28;;;;;;;43.72;27.35;;;;;;;11.05;100.00;102497.13;5242744;28;20582;-64
2022/05/06 07:54:00;;;;;;;44.85;26.45;;;;;;;11.18;100.00;102489.34;5254976;28;20116;-64
2022/05/06 07:56:31;;;;;;;43.22;26.02;;;;;;;11.26;100.00;102492.44;5256675;28;20037;-64
2022/05/06 07:59:03;;;;;;;42.40;26.48;;;;;;;11.47;100.00;102495.78;5248532;28;20025;-64
2022/05/06 08:04:34;;;;;;;43.33;27.13;;;;;;;11.62;100.00;102498.56;5254066;28;20395;-64
2022/05/06 08:07:06;;;;;;;44.13;27.17;;;;;;;11.78;100.00;102496.78;5237845;28;20029;-64
2022/05/06 08:09:38;;;;;;;41.38;26.13;;;;;;;11.69;100.00;102503.50;5255174;28;20039;-64
2022/05/06 08:12:10;;;;;;;41.38;24.75;;;;;;;11.85;100.00;102506.22;5252929;28;20033;-64
2022/05/06 08:14:42;;;;;;;41.63;24.77;;;;;;;11.95;100.00;102509.25;5253383;28;20132;-64
2022/05/06 08:17:14;;;;;;;38.40;25.88;;;;;;;11.85;100.00;102505.31;5252842;28;20029;-64
2022/05/06 08:19:45;;;;;;;39.50;25.20;;;;;;;11.98;100.00;102510.91;5246816;28;20037;-64
2022/05/06 08:22:16;;;;;;;39.20;26.42;;;;;;;11.98;100.00;102501.06;5249782;28;20143;-64
2022/05/06 08:24:48;;;;;;;40.58;26.17;;;;;;;12.13;100.00;102500.19;5252646;28;20497;-64
2022/05/06 08:27:19;;;;;;;37.55;25.67;;;;;;;12.20;100.00;102499.88;5249170;28;20494;-64
2022/05/06 08:29:50;;;;;;;40.38;25.70;;;;;;;12.16;100.00;102496.50;5253887;28;20033;-64
2022/05/06 08:32:21;;;;;;;40.45;25.05;;;;;;;12.53;100.00;102489.00;5251532;28;20032;-64
2022/05/06 08:34:52;;;;;;;39.88;25.73;;;;;;;12.57;100.00;102495.91;5248720;28;20060;-64
2022/05/06 08:37:25;;;;;;;39.05;25.67;;;;;;;12.69;100.00;102486.28;5254080;28;20040;-64
2022/05/06 08:39:56;;;;;;;38.63;25.70;;;;;;;12.92;100.00;102482.22;5254685;28;20035;-64
2022/05/06 08:42:28;;;;;;;37.40;24.80;;;;;;;13.12;99.01;102481.91;5252688;28;20025;-64
2022/05/06 08:50:51;;;;;;;36.35;25.00;;;;;;;13.95;95.62;102483.06;5248172;28;20449;-64
2022/05/06 08:53:26;;;;;;;33.42;24.10;;;;;;;13.96;95.21;102485.63;5252620;28;20399;-64
2022/05/06 08:55:59;;;;;;;30.23;22.00;;;;;;;14.18;90.84;102468.13;5259878;28;20029;-64
2022/05/06 08:58:34;;;;;;;34.70;22.60;;;;;;;14.26;91.04;102469.31;5259007;28;20648;-64
2022/05/06 09:01:08;;;;;;;33.10;22.77;;;;;;;14.20;90.48;102477.78;5258192;28;20191;-64
2022/05/06 09:03:41;;;;;;;32.38;22.92;;;;;;;14.27;91.36;102479.13;5257454;28;20029;-64
2022/05/06 09:06:17;;;;;;;28.77;21.13;;;;;;;14.24;89.60;102479.31;5253178;28;20471;-64
2022/05/06 09:08:51;;;;;;;26.95;20.20;;;;;;;14.08;89.15;102474.09;5257482;28;20028;-64
2022/05/06 09:16:39;;;;;;;30.33;21.83;;;;;;;13.89;90.84;102477.09;5253251;28;20040;-64
2022/05/06 09:17:23;;;;;;;25.80;19.15;;;;;;;13.78;89.68;102476.09;5251979;28;20048;-64
2022/05/06 09:19:54;;;;;;;27.67;21.60;;;;;;;13.49;90.60;102474.28;5253913;28;20025;-64
2022/05/06 09:22:27;;;;;;;28.45;20.77;;;;;;;13.61;91.72;102458.38;5246224;28;20038;-64
2022/05/06 09:24:59;;;;;;;28.27;20.02;;;;;;;13.50;91.18;102470.66;5254966;28;20051;-64
2022/05/06 09:27:30;;;;;;;28.35;20.23;;;;;;;13.47;91.87;102467.28;5248522;28;20025;-64
2022/05/06 09:30:08;;;;;;;29.25;21.67;;;;;;;13.47;93.73;102467.28;5257273;28;20033;-64
2022/05/06 09:32:39;;;;;;;29.55;20.08;;;;;;;13.39;92.40;102454.38;5248109;28;20051;-64
2022/05/06 09:35:13;;;;;;;26.73;20.20;;;;;;;13.57;92.61;102456.84;5255495;28;20029;-64
2022/05/06 09:37:47;;;;;;;28.13;19.83;;;;;;;13.59;91.68;102457.63;5258840;28;20214;-64
2022/05/06 09:40:28;;;;;;;26.15;18.33;;;;;;;13.68;91.35;102459.72;5257324;28;20033;-64
2022/05/06 09:43:00;;;;;;;27.10;18.00;;;;;;;13.80;91.88;102458.91;5257432;28;20064;-64
2022/05/06 09:45:39;;;;;;;26.05;18.83;;;;;;;13.91;92.15;102459.09;5253778;28;20112;-64
2022/05/06 09:48:12;;;;;;;25.60;18.08;;;;;;;13.97;91.98;102456.97;5251467;28;20463;-64
2022/05/06 09:50:45;;;;;;;27.50;18.80;;;;;;;14.11;91.29;102451.56;5252410;28;20068;-65
2022/05/06 09:53:18;;;;;;;24.13;17.42;;;;;;;14.29;89.90;102453.03;5255206;28;20043;-65
2022/05/06 09:55:50;;;;;;;24.25;17.38;;;;;;;14.15;90.95;102452.22;5248153;28;20037;-65
2022/05/06 09:58:21;;;;;;;21.25;16.30;;;;;;;14.42;90.09;102452.19;5251855;28;20041;-65
2022/05/06 10:00:52;;;;;;;23.10;17.33;;;;;;;14.28;89.16;102448.59;5251758;28;20032;-64
2022/05/06 10:03:24;;;;;;;26.58;17.17;;;;;;;14.39;88.41;102455.09;5256564;28;20036;-64
2022/05/06 10:05:55;;;;;;;24.25;16.05;;;;;;;14.45;88.14;102460.06;5254083;28;20097;-65
2022/05/06 10:08:28;;;;;;;19.45;14.38;;;;;;;14.41;85.55;102458.53;5250702;28;20028;-65
2022/05/06 10:11:01;;;;;;;19.67;13.50;;;;;;;14.57;86.16;102453.88;5255353;28;20533;-64
2022/05/06 10:13:34;;;;;;;18.75;13.63;;;;;;;14.79;86.29;102453.28;5258056;28;20108;-65
2022/05/06 10:16:06;;;;;;;16.05;11.43;;;;;;;14.88;82.71;102443.72;5256282;28;20530;-65
2022/05/06 10:18:40;;;;;;;13.05;9.50;;;;;;;15.00;80.57;102440.19;5253694;28;20111;-65
2022/05/06 10:21:12;;;;;;;14.85;11.48;;;;;;;15.03;84.52;102431.03;5255251;28;20028;-65
2022/05/06 10:23:54;;;;;;;18.17;12.57;;;;;;;15.09;83.81;102430.59;5255802;28;20036;-65
2022/05/06 10:26:39;;;;;;;17.10;12.60;;;;;;;15.27;82.49;102432.00;5256676;28;20464;-65
2022/05/06 10:32:25;;;;;;;10.40;8.27;;;;;;;15.44;77.59;102430.81;5250929;28;20036;-65
2022/05/06 10:35:02;;;;;;;11.85;9.27;;;;;;;15.73;79.12;102430.56;5246861;28;20041;-65
2022/05/06 10:37:45;;;;;;;9.63;6.68;;;;;;;15.80;78.11;102423.75;5247052;28;20043;-64
2022/05/06 10:40:22;;;;;;;7.88;5.53;;;;;;;15.91;76.63;102430.16;5251393;28;20024;-65
2022/05/06 10:42:53;;;;;;;8.25;6.00;;;;;;;16.00;72.26;102426.81;5256570;28;20041;-65
2022/05/06 10:45:35;;;;;;;8.57;6.65;;;;;;;15.97;73.90;102422.47;5255969;28;20410;-65
2022/05/06 10:48:25;;;;;;;11.32;8.00;;;;;;;16.16;75.46;102410.34;5251222;28;20513;-65
2022/05/06 10:51:20;;;;;;;9.82;7.30;;;;;;;16.16;74.91;102405.81;5254584;28;20032;-65
2022/05/06 10:53:52;;;;;;;10.32;8.13;;;;;;;16.54;73.20;102399.34;5254765;28;20029;-65
2022/05/06 10:56:23;;;;;;;10.43;8.30;;;;;;;16.48;72.13;102402.50;5255942;28;20048;-65
2022/05/06 10:58:57;;;;;;;11.07;7.93;;;;;;;16.73;71.86;102408.72;5254695;28;20025;-65
2022/05/06 11:01:29;;;;;;;;;;;;;;;16.63;72.39;102406.72;5252739;28;20116;-65
2022/05/06 11:04:00;;;;;;;9.65;7.38;;;;;;;16.68;69.18;102400.97;5256641;28;20027;-65
2022/05/06 11:06:31;;;;;;;11.30;7.60;;;;;;;16.77;69.66;102404.78;5255442;28;20094;-65
2022/05/06 11:09:03;;;;;;;9.40;7.28;;;;;;;16.93;67.25;102401.78;5248866;28;20028;-65
2022/05/06 11:11:34;;;;;;;9.57;7.80;;;;;;;16.92;70.43;102398.22;5253433;28;20031;-65
2022/05/06 11:14:17;;;;;;;10.20;8.02;;;;;;;17.02;68.73;102391.13;5250911;28;20033;-65
2022/05/06 11:16:49;;;;;;;11.88;6.93;;;;;;;17.30;66.90;102393.47;5255024;28;20101;-65
2022/05/06 11:19:33;;;;;;;8.55;6.68;;;;;;;17.41;65.36;102396.13;5253184;28;20037;-65
2022/05/06 11:22:08;;;;;;;10.38;7.70;;;;;;;17.39;66.07;102393.59;5245634;28;20057;-65
2022/05/06 11:24:39;;;;;;;12.30;7.88;;;;;;;17.38;67.59;102388.31;5255197;28;20103;-65
2022/05/06 11:27:18;;;;;;;9.48;6.93;;;;;;;17.43;64.30;102389.66;5255300;28;20041;-65
2022/05/06 11:29:51;;;;;;;7.30;5.88;;;;;;;17.60;62.91;102384.69;5248450;28;20028;-65
2022/05/06 11:32:24;;;;;;;10.25;6.82;;;;;;;17.75;64.86;102385.28;5253018;28;20111;-66
2022/05/06 11:35:10;;;;;;;9.03;7.00;;;;;;;17.74;64.11;102379.03;5250423;28;20025;-65
2022/05/06 11:37:42;;;;;;;12.40;6.15;;;;;;;18.05;60.73;102373.81;5252146;28;20037;-65
2022/05/06 11:43:07;;;;;;;11.10;7.88;;;;;;;17.99;62.56;102375.19;5246306;28;20037;-65
2022/05/06 11:48:28;;;;;;;12.07;9.15;;;;;;;17.97;63.47;102376.31;5256943;28;20033;-65
2022/05/06 11:51:03;;;;;;;10.18;7.55;;;;;;;18.05;61.51;102370.25;5249863;28;20025;-65
2022/05/06 11:53:35;;;;;;;10.07;7.53;;;;;;;18.04;61.49;102369.38;5255974;28;20106;-65
2022/05/06 11:56:08;;;;;;;10.77;8.35;;;;;;;18.16;59.86;102365.66;5254964;28;20033;-65
2022/05/06 11:58:43;;;;;;;11.40;7.30;;;;;;;18.38;60.60;102366.53;5252658;28;20026;-65
2022/05/06 12:01:27;;;;;;;11.38;7.65;;;;;;;18.25;62.09;102360.47;5247494;28;20174;-66
2022/05/06 12:04:00;;;;;;;10.45;7.30;;;;;;;18.33;59.19;102358.84;5248592;28;20045;-65
2022/05/06 12:06:32;;;;;;;12.65;7.07;;;;;;;18.40;58.64;102353.75;5250305;28;20029;-65
2022/05/06 12:09:08;;;;;;;9.07;7.03;;;;;;;18.32;59.55;102354.41;5247249;28;20490;-65
2022/05/06 12:11:41;;;;;;;8.35;6.68;;;;;;;18.65;59.96;102349.78;5246658;28;20840;-65